sensor_id;sensor_type;location;lat;lon;timestamp;temperature;humidity
15638;DHT22;26604;53.596;10.042;2023-08-24T00:00:34;18.40;99.90
15638;DHT22;26604;53.596;10.042;2023-08-24T00:03:01;18.50;99.90
15638;DHT22;26604;53.596;10.042;2023-08-24T00:05:33;18.50;99.90
15638;DHT22;26604;53.596;10.042;2023-08-24T00:08:00;18.50;99.90
15638;DHT22;26604;53.596;10.042;2023-08-24T00:10:26;18.50;99.90
15638;DHT22;26604;53.596;10.042;2023-08-24T00:12:53;18.50;99.90
15638;DHT22;26604;53.596;10.042;2023-08-24T00:15:20;18.50;99.90
15638;DHT22;26604;53.596;10.042;2023-08-24T00:17:49;18.40;99.90
15638;DHT22;26604;53.596;10.042;2023-08-24T00:20:16;18.40;99.90
15638;DHT22;26604;53.596;10.042;2023-08-24T00:22:42;18.40;99.90
15638;DHT22;26604;53.596;10.042;2023-08-24T00:25:09;18.30;99.90
15638;DHT22;26604;53.596;10.042;2023-08-24T00:27:37;18.30;99.90
15638;DHT22;26604;53.596;10.042;2023-08-24T00:30:05;18.20;99.90
15638;DHT22;26604;53.596;10.042;2023-08-24T00:32:33;18.10;99.90
15638;DHT22;26604;53.596;10.042;2023-08-24T00:35:02;18.10;99.90
15638;DHT22;26604;53.596;10.042;2023-08-24T00:37:29;18.10;99.90
15638;DHT22;26604;53.596;10.042;2023-08-24T00:39:56;18.10;99.90
15638;DHT22;26604;53.596;10.042;2023-08-24T00:42:23;18.10;99.90
15638;DHT22;26604;53.596;10.042;2023-08-24T00:44:50;18.10;99.90
15638;DHT22;26604;53.596;10.042;2023-08-24T00:47:17;18.10;99.90
15638;DHT22;26604;53.596;10.042;2023-08-24T00:49:44;18.10;99.90
15638;DHT22;26604;53.596;10.042;2023-08-24T00:52:13;18.10;99.90
15638;DHT22;26604;53.596;10.042;2023-08-24T00:54:41;18.10;99.90
15638;DHT22;26604;53.596;10.042;2023-08-24T00:57:08;18.10;99.90
15638;DHT22;26604;53.596;10.042;2023-08-24T00:59:34;18.10;99.90
15638;DHT22;26604;53.596;10.042;2023-08-24T01:02:02;18.00;99.90
15638;DHT22;26604;53.596;10.042;2023-08-24T01:04:29;18.00;99.90
15638;DHT22;26604;53.596;10.042;2023-08-24T01:06:56;18.00;99.90
15638;DHT22;26604;53.596;10.042;2023-08-24T01:09:24;17.90;99.90
15638;DHT22;26604;53.596;10.042;2023-08-24T01:11:59;18.00;99.90
15638;DHT22;26604;53.596;10.042;2023-08-24T01:14:36;17.90;99.90
15638;DHT22;26604;53.596;10.042;2023-08-24T01:17:06;17.90;99.90
15638;DHT22;26604;53.596;10.042;2023-08-24T01:19:38;17.90;99.90
15638;DHT22;26604;53.596;10.042;2023-08-24T01:22:08;17.90;99.90
15638;DHT22;26604;53.596;10.042;2023-08-24T01:24:46;17.90;99.90
15638;DHT22;26604;53.596;10.042;2023-08-24T01:27:15;17.90;99.90
15638;DHT22;26604;53.596;10.042;2023-08-24T01:29:42;17.80;99.90
15638;DHT22;26604;53.596;10.042;2023-08-24T01:32:10;17.70;99.90
15638;DHT22;26604;53.596;10.042;2023-08-24T01:34:37;17.60;99.90
15638;DHT22;26604;53.596;10.042;2023-08-24T01:37:05;17.60;99.90
15638;DHT22;26604;53.596;10.042;2023-08-24T01:39:42;17.60;99.90
15638;DHT22;26604;53.596;10.042;2023-08-24T01:42:12;17.50;99.90
15638;DHT22;26604;53.596;10.042;2023-08-24T01:44:50;17.50;99.90
15638;DHT22;26604;53.596;10.042;2023-08-24T01:47:18;17.40;99.90
15638;DHT22;26604;53.596;10.042;2023-08-24T01:49:46;17.40;99.90
15638;DHT22;26604;53.596;10.042;2023-08-24T01:52:13;17.40;99.90
15638;DHT22;26604;53.596;10.042;2023-08-24T01:54:41;17.30;99.90
15638;DHT22;26604;53.596;10.042;2023-08-24T01:57:08;17.30;99.90
15638;DHT22;26604;53.596;10.042;2023-08-24T01:59:34;17.30;99.90
15638;DHT22;26604;53.596;10.042;2023-08-24T02:02:03;17.20;99.90
15638;DHT22;26604;53.596;10.042;2023-08-24T02:04:29;17.10;99.90
15638;DHT22;26604;53.596;10.042;2023-08-24T02:06:56;17.00;99.90
15638;DHT22;26604;53.596;10.042;2023-08-24T02:09:23;16.90;99.90
15638;DHT22;26604;53.596;10.042;2023-08-24T02:11:50;16.90;99.90
15638;DHT22;26604;53.596;10.042;2023-08-24T02:14:17;16.80;99.90
15638;DHT22;26604;53.596;10.042;2023-08-24T02:16:44;16.90;99.90
15638;DHT22;26604;53.596;10.042;2023-08-24T02:19:12;16.80;99.90
15638;DHT22;26604;53.596;10.042;2023-08-24T02:21:39;16.70;99.90
15638;DHT22;26604;53.596;10.042;2023-08-24T02:24:06;16.70;99.90
15638;DHT22;26604;53.596;10.042;2023-08-24T02:26:33;16.60;99.90
15638;DHT22;26604;53.596;10.042;2023-08-24T02:29:00;16.70;99.90
15638;DHT22;26604;53.596;10.042;2023-08-24T02:31:27;16.60;99.90
15638;DHT22;26604;53.596;10.042;2023-08-24T02:33:54;16.60;99.90
15638;DHT22;26604;53.596;10.042;2023-08-24T02:36:22;16.70;99.90
15638;DHT22;26604;53.596;10.042;2023-08-24T02:38:49;16.60;99.90
15638;DHT22;26604;53.596;10.042;2023-08-24T02:41:16;16.60;99.90
15638;DHT22;26604;53.596;10.042;2023-08-24T02:43:43;16.50;99.90
15638;DHT22;26604;53.596;10.042;2023-08-24T02:46:10;16.50;99.90
15638;DHT22;26604;53.596;10.042;2023-08-24T02:48:36;16.50;99.90
15638;DHT22;26604;53.596;10.042;2023-08-24T02:51:04;16.40;99.90
15638;DHT22;26604;53.596;10.042;2023-08-24T02:53:33;16.40;99.90
15638;DHT22;26604;53.596;10.042;2023-08-24T02:56:00;16.30;99.90
15638;DHT22;26604;53.596;10.042;2023-08-24T02:58:27;16.30;99.90
15638;DHT22;26604;53.596;10.042;2023-08-24T03:00:54;16.20;99.90
15638;DHT22;26604;53.596;10.042;2023-08-24T03:03:21;16.20;99.90
15638;DHT22;26604;53.596;10.042;2023-08-24T03:05:55;16.20;99.90
15638;DHT22;26604;53.596;10.042;2023-08-24T03:08:22;16.10;99.90
15638;DHT22;26604;53.596;10.042;2023-08-24T03:10:52;16.10;99.90
15638;DHT22;26604;53.596;10.042;2023-08-24T03:13:19;16.10;99.90
15638;DHT22;26604;53.596;10.042;2023-08-24T03:15:46;16.20;99.90
15638;DHT22;26604;53.596;10.042;2023-08-24T03:18:14;16.10;99.90
15638;DHT22;26604;53.596;10.042;2023-08-24T03:20:42;16.10;99.90
15638;DHT22;26604;53.596;10.042;2023-08-24T03:23:09;16.10;99.90
15638;DHT22;26604;53.596;10.042;2023-08-24T03:25:37;16.10;99.90
15638;DHT22;26604;53.596;10.042;2023-08-24T03:28:06;16.10;99.90
15638;DHT22;26604;53.596;10.042;2023-08-24T03:30:33;16.10;99.90
15638;DHT22;26604;53.596;10.042;2023-08-24T03:33:00;16.10;99.90
15638;DHT22;26604;53.596;10.042;2023-08-24T03:35:28;16.00;99.90
15638;DHT22;26604;53.596;10.042;2023-08-24T03:37:55;15.90;99.90
15638;DHT22;26604;53.596;10.042;2023-08-24T03:40:22;15.80;99.90
15638;DHT22;26604;53.596;10.042;2023-08-24T03:42:49;15.80;99.90
15638;DHT22;26604;53.596;10.042;2023-08-24T03:45:17;15.80;99.90
15638;DHT22;26604;53.596;10.042;2023-08-24T03:47:44;15.70;99.90
15638;DHT22;26604;53.596;10.042;2023-08-24T03:50:11;15.70;99.90
15638;DHT22;26604;53.596;10.042;2023-08-24T03:52:38;15.70;99.90
15638;DHT22;26604;53.596;10.042;2023-08-24T03:55:06;15.60;99.90
15638;DHT22;26604;53.596;10.042;2023-08-24T03:57:33;15.60;99.90
15638;DHT22;26604;53.596;10.042;2023-08-24T04:00:00;15.60;99.90
15638;DHT22;26604;53.596;10.042;2023-08-24T04:02:32;15.50;99.90
15638;DHT22;26604;53.596;10.042;2023-08-24T04:04:59;15.50;99.90
15638;DHT22;26604;53.596;10.042;2023-08-24T04:07:26;15.50;99.90
15638;DHT22;26604;53.596;10.042;2023-08-24T04:09:53;15.50;99.90
15638;DHT22;26604;53.596;10.042;2023-08-24T04:12:20;15.50;99.90
15638;DHT22;26604;53.596;10.042;2023-08-24T04:14:47;15.60;99.90
15638;DHT22;26604;53.596;10.042;2023-08-24T04:17:14;15.50;99.90
15638;DHT22;26604;53.596;10.042;2023-08-24T04:19:42;15.50;99.90
15638;DHT22;26604;53.596;10.042;2023-08-24T04:22:09;15.50;99.90
15638;DHT22;26604;53.596;10.042;2023-08-24T04:24:36;15.50;99.90
15638;DHT22;26604;53.596;10.042;2023-08-24T04:27:03;15.60;99.90
15638;DHT22;26604;53.596;10.042;2023-08-24T04:29:30;15.60;99.90
15638;DHT22;26604;53.596;10.042;2023-08-24T04:31:57;15.60;99.90
15638;DHT22;26604;53.596;10.042;2023-08-24T04:34:23;15.60;99.90
15638;DHT22;26604;53.596;10.042;2023-08-24T04:36:53;15.60;99.90
15638;DHT22;26604;53.596;10.042;2023-08-24T04:39:21;15.60;99.90
15638;DHT22;26604;53.596;10.042;2023-08-24T04:41:47;15.60;99.90
15638;DHT22;26604;53.596;10.042;2023-08-24T04:44:14;15.70;99.90
15638;DHT22;26604;53.596;10.042;2023-08-24T04:46:41;15.70;99.90
15638;DHT22;26604;53.596;10.042;2023-08-24T04:49:08;15.60;99.90
15638;DHT22;26604;53.596;10.042;2023-08-24T04:51:35;15.70;99.90
15638;DHT22;26604;53.596;10.042;2023-08-24T04:54:03;15.60;99.90
15638;DHT22;26604;53.596;10.042;2023-08-24T04:56:30;15.60;99.90
15638;DHT22;26604;53.596;10.042;2023-08-24T04:58:59;15.60;99.90
15638;DHT22;26604;53.596;10.042;2023-08-24T05:01:28;15.60;99.90
15638;DHT22;26604;53.596;10.042;2023-08-24T05:03:57;15.70;99.90
15638;DHT22;26604;53.596;10.042;2023-08-24T05:06:24;15.70;99.90
15638;DHT22;26604;53.596;10.042;2023-08-24T05:08:51;15.70;99.90
15638;DHT22;26604;53.596;10.042;2023-08-24T05:11:22;15.80;99.90
15638;DHT22;26604;53.596;10.042;2023-08-24T05:13:49;15.80;99.90
15638;DHT22;26604;53.596;10.042;2023-08-24T05:16:16;15.90;99.90
15638;DHT22;26604;53.596;10.042;2023-08-24T05:18:43;16.00;99.90
15638;DHT22;26604;53.596;10.042;2023-08-24T05:21:10;16.00;99.90
15638;DHT22;26604;53.596;10.042;2023-08-24T05:23:37;16.00;99.90
15638;DHT22;26604;53.596;10.042;2023-08-24T05:26:04;16.10;99.90
15638;DHT22;26604;53.596;10.042;2023-08-24T05:28:32;16.10;99.90
15638;DHT22;26604;53.596;10.042;2023-08-24T05:30:59;16.20;99.90
15638;DHT22;26604;53.596;10.042;2023-08-24T05:33:27;16.20;99.90
15638;DHT22;26604;53.596;10.042;2023-08-24T05:35:56;16.20;99.90
15638;DHT22;26604;53.596;10.042;2023-08-24T05:38:23;16.30;99.90
15638;DHT22;26604;53.596;10.042;2023-08-24T05:40:50;16.30;99.90
15638;DHT22;26604;53.596;10.042;2023-08-24T05:43:17;16.40;99.90
15638;DHT22;26604;53.596;10.042;2023-08-24T05:45:45;16.40;99.90
15638;DHT22;26604;53.596;10.042;2023-08-24T05:48:12;16.50;99.90
15638;DHT22;26604;53.596;10.042;2023-08-24T05:50:42;16.50;99.90
15638;DHT22;26604;53.596;10.042;2023-08-24T05:53:09;16.60;99.90
15638;DHT22;26604;53.596;10.042;2023-08-24T05:55:36;16.60;99.90
15638;DHT22;26604;53.596;10.042;2023-08-24T05:58:03;16.70;99.90
15638;DHT22;26604;53.596;10.042;2023-08-24T06:00:30;16.70;99.90
15638;DHT22;26604;53.596;10.042;2023-08-24T06:03:00;16.80;99.90
15638;DHT22;26604;53.596;10.042;2023-08-24T06:05:26;16.80;99.90
15638;DHT22;26604;53.596;10.042;2023-08-24T06:07:53;16.90;99.90
15638;DHT22;26604;53.596;10.042;2023-08-24T06:10:20;16.90;99.90
15638;DHT22;26604;53.596;10.042;2023-08-24T06:12:48;17.00;99.90
15638;DHT22;26604;53.596;10.042;2023-08-24T06:15:15;17.00;99.90
15638;DHT22;26604;53.596;10.042;2023-08-24T06:17:42;17.10;99.90
15638;DHT22;26604;53.596;10.042;2023-08-24T06:20:12;17.20;99.90
15638;DHT22;26604;53.596;10.042;2023-08-24T06:22:39;17.30;99.90
15638;DHT22;26604;53.596;10.042;2023-08-24T06:25:06;17.30;99.90
15638;DHT22;26604;53.596;10.042;2023-08-24T06:27:34;17.40;99.90
15638;DHT22;26604;53.596;10.042;2023-08-24T06:30:03;17.50;99.90
15638;DHT22;26604;53.596;10.042;2023-08-24T06:32:30;17.60;99.90
15638;DHT22;26604;53.596;10.042;2023-08-24T06:34:57;17.70;99.90
15638;DHT22;26604;53.596;10.042;2023-08-24T06:37:26;17.70;99.90
15638;DHT22;26604;53.596;10.042;2023-08-24T06:39:53;17.80;99.90
15638;DHT22;26604;53.596;10.042;2023-08-24T06:42:20;17.80;99.90
15638;DHT22;26604;53.596;10.042;2023-08-24T06:44:47;17.90;99.90
15638;DHT22;26604;53.596;10.042;2023-08-24T06:47:15;18.00;99.90
15638;DHT22;26604;53.596;10.042;2023-08-24T06:49:42;18.00;99.90
15638;DHT22;26604;53.596;10.042;2023-08-24T06:52:09;18.10;99.90
15638;DHT22;26604;53.596;10.042;2023-08-24T06:54:37;18.20;99.90
15638;DHT22;26604;53.596;10.042;2023-08-24T06:57:04;18.20;99.90
15638;DHT22;26604;53.596;10.042;2023-08-24T06:59:31;18.30;99.90
15638;DHT22;26604;53.596;10.042;2023-08-24T07:01:58;18.30;99.90
15638;DHT22;26604;53.596;10.042;2023-08-24T07:04:26;18.40;99.90
15638;DHT22;26604;53.596;10.042;2023-08-24T07:06:53;18.50;99.90
15638;DHT22;26604;53.596;10.042;2023-08-24T07:09:20;18.60;99.90
15638;DHT22;26604;53.596;10.042;2023-08-24T07:11:49;18.70;99.90
15638;DHT22;26604;53.596;10.042;2023-08-24T07:14:16;18.70;99.90
15638;DHT22;26604;53.596;10.042;2023-08-24T07:16:42;18.80;99.90
15638;DHT22;26604;53.596;10.042;2023-08-24T07:19:09;18.80;99.90
15638;DHT22;26604;53.596;10.042;2023-08-24T07:21:36;18.90;99.90
15638;DHT22;26604;53.596;10.042;2023-08-24T07:24:03;19.00;99.90
15638;DHT22;26604;53.596;10.042;2023-08-24T07:26:30;19.10;99.90
15638;DHT22;26604;53.596;10.042;2023-08-24T07:28:59;19.10;99.90
15638;DHT22;26604;53.596;10.042;2023-08-24T07:31:26;19.10;99.90
15638;DHT22;26604;53.596;10.042;2023-08-24T07:33:53;19.20;99.90
15638;DHT22;26604;53.596;10.042;2023-08-24T07:36:20;19.30;99.90
15638;DHT22;26604;53.596;10.042;2023-08-24T07:38:47;19.40;99.90
15638;DHT22;26604;53.596;10.042;2023-08-24T07:41:14;19.40;99.90
15638;DHT22;26604;53.596;10.042;2023-08-24T07:43:42;19.50;99.90
15638;DHT22;26604;53.596;10.042;2023-08-24T07:46:11;19.60;99.90
15638;DHT22;26604;53.596;10.042;2023-08-24T07:48:38;19.60;99.90
15638;DHT22;26604;53.596;10.042;2023-08-24T07:51:05;19.70;99.90
15638;DHT22;26604;53.596;10.042;2023-08-24T07:53:32;19.80;99.90
15638;DHT22;26604;53.596;10.042;2023-08-24T07:56:00;19.80;99.90
15638;DHT22;26604;53.596;10.042;2023-08-24T07:58:27;19.90;99.90
15638;DHT22;26604;53.596;10.042;2023-08-24T08:00:54;20.00;99.90
15638;DHT22;26604;53.596;10.042;2023-08-24T08:03:22;20.10;99.90
15638;DHT22;26604;53.596;10.042;2023-08-24T08:05:49;20.20;99.90
15638;DHT22;26604;53.596;10.042;2023-08-24T08:08:16;20.20;99.90
15638;DHT22;26604;53.596;10.042;2023-08-24T08:10:43;20.30;99.90
15638;DHT22;26604;53.596;10.042;2023-08-24T08:13:10;20.40;99.90
15638;DHT22;26604;53.596;10.042;2023-08-24T08:15:37;20.50;99.90
15638;DHT22;26604;53.596;10.042;2023-08-24T08:18:05;20.50;99.90
15638;DHT22;26604;53.596;10.042;2023-08-24T08:20:33;20.60;99.90
15638;DHT22;26604;53.596;10.042;2023-08-24T08:23:00;20.70;99.90
15638;DHT22;26604;53.596;10.042;2023-08-24T08:25:27;20.70;99.90
15638;DHT22;26604;53.596;10.042;2023-08-24T08:27:53;20.80;99.90
15638;DHT22;26604;53.596;10.042;2023-08-24T08:30:20;20.80;99.90
15638;DHT22;26604;53.596;10.042;2023-08-24T08:32:48;20.80;99.90
15638;DHT22;26604;53.596;10.042;2023-08-24T08:35:16;20.90;99.90
15638;DHT22;26604;53.596;10.042;2023-08-24T08:37:45;21.00;99.90
15638;DHT22;26604;53.596;10.042;2023-08-24T08:40:12;21.10;99.90
15638;DHT22;26604;53.596;10.042;2023-08-24T08:42:39;21.10;99.90
15638;DHT22;26604;53.596;10.042;2023-08-24T08:45:09;21.20;99.90
15638;DHT22;26604;53.596;10.042;2023-08-24T08:47:36;21.30;99.90
15638;DHT22;26604;53.596;10.042;2023-08-24T08:50:04;21.40;99.90
15638;DHT22;26604;53.596;10.042;2023-08-24T08:52:31;21.40;99.90
15638;DHT22;26604;53.596;10.042;2023-08-24T08:55:00;21.60;99.90
15638;DHT22;26604;53.596;10.042;2023-08-24T08:57:31;21.80;99.90
15638;DHT22;26604;53.596;10.042;2023-08-24T08:59:59;22.00;99.90
15638;DHT22;26604;53.596;10.042;2023-08-24T09:02:26;22.20;99.90
15638;DHT22;26604;53.596;10.042;2023-08-24T09:04:55;22.40;99.90
15638;DHT22;26604;53.596;10.042;2023-08-24T09:07:22;22.70;98.80
15638;DHT22;26604;53.596;10.042;2023-08-24T09:09:49;23.10;59.80
15638;DHT22;26604;53.596;10.042;2023-08-24T09:12:18;23.40;34.70
15638;DHT22;26604;53.596;10.042;2023-08-24T09:14:45;23.60;26.40
15638;DHT22;26604;53.596;10.042;2023-08-24T09:17:20;23.70;16.50
15638;DHT22;26604;53.596;10.042;2023-08-24T09:19:50;23.70;11.30
15638;DHT22;26604;53.596;10.042;2023-08-24T09:22:17;23.70;1.00
15638;DHT22;26604;53.596;10.042;2023-08-24T09:24:44;23.80;1.00
15638;DHT22;26604;53.596;10.042;2023-08-24T09:27:15;23.80;1.00
15638;DHT22;26604;53.596;10.042;2023-08-24T09:29:47;23.80;5.50
15638;DHT22;26604;53.596;10.042;2023-08-24T09:32:15;23.70;1.80
15638;DHT22;26604;53.596;10.042;2023-08-24T09:34:47;23.60;15.60
15638;DHT22;26604;53.596;10.042;2023-08-24T09:37:15;23.70;8.10
15638;DHT22;26604;53.596;10.042;2023-08-24T09:39:42;23.80;4.80
15638;DHT22;26604;53.596;10.042;2023-08-24T09:42:09;24.00;13.50
15638;DHT22;26604;53.596;10.042;2023-08-24T09:44:35;24.20;1.00
15638;DHT22;26604;53.596;10.042;2023-08-24T09:47:09;24.30;1.00
15638;DHT22;26604;53.596;10.042;2023-08-24T09:49:36;24.30;1.00
15638;DHT22;26604;53.596;10.042;2023-08-24T09:52:06;24.20;1.00
15638;DHT22;26604;53.596;10.042;2023-08-24T09:54:37;24.10;1.00
15638;DHT22;26604;53.596;10.042;2023-08-24T09:57:06;24.10;1.00
15638;DHT22;26604;53.596;10.042;2023-08-24T09:59:34;24.00;1.20
15638;DHT22;26604;53.596;10.042;2023-08-24T10:02:03;23.90;11.30
15638;DHT22;26604;53.596;10.042;2023-08-24T10:04:36;23.90;5.80
15638;DHT22;26604;53.596;10.042;2023-08-24T10:07:08;24.10;12.80
15638;DHT22;26604;53.596;10.042;2023-08-24T10:09:47;24.10;8.80
15638;DHT22;26604;53.596;10.042;2023-08-24T10:12:20;24.20;1.00
15638;DHT22;26604;53.596;10.042;2023-08-24T10:14:56;24.10;1.00
15638;DHT22;26604;53.596;10.042;2023-08-24T10:17:27;24.10;1.00
15638;DHT22;26604;53.596;10.042;2023-08-24T10:19:56;24.00;1.00
15638;DHT22;26604;53.596;10.042;2023-08-24T10:22:23;23.80;9.00
15638;DHT22;26604;53.596;10.042;2023-08-24T10:24:51;23.80;21.20
15638;DHT22;26604;53.596;10.042;2023-08-24T10:27:22;23.90;37.30
15638;DHT22;26604;53.596;10.042;2023-08-24T10:29:49;24.10;47.60
15638;DHT22;26604;53.596;10.042;2023-08-24T10:32:17;24.30;5.20
15638;DHT22;26604;53.596;10.042;2023-08-24T10:34:47;24.40;7.00
15638;DHT22;26604;53.596;10.042;2023-08-24T10:37:14;24.50;1.00
15638;DHT22;26604;53.596;10.042;2023-08-24T10:39:44;24.50;1.00
15638;DHT22;26604;53.596;10.042;2023-08-24T10:42:12;24.60;1.00
15638;DHT22;26604;53.596;10.042;2023-08-24T10:44:43;24.50;1.00
15638;DHT22;26604;53.596;10.042;2023-08-24T10:47:12;24.30;1.00
15638;DHT22;26604;53.596;10.042;2023-08-24T10:49:40;24.30;1.00
15638;DHT22;26604;53.596;10.042;2023-08-24T10:52:23;24.30;1.00
15638;DHT22;26604;53.596;10.042;2023-08-24T10:54:52;24.10;1.00
15638;DHT22;26604;53.596;10.042;2023-08-24T10:57:20;24.10;1.00
15638;DHT22;26604;53.596;10.042;2023-08-24T11:00:04;24.10;1.00
15638;DHT22;26604;53.596;10.042;2023-08-24T11:02:41;24.20;1.00
15638;DHT22;26604;53.596;10.042;2023-08-24T11:05:17;24.30;1.00
15638;DHT22;26604;53.596;10.042;2023-08-24T11:07:53;24.40;1.00
15638;DHT22;26604;53.596;10.042;2023-08-24T11:10:21;24.60;1.00
15638;DHT22;26604;53.596;10.042;2023-08-24T11:13:11;24.70;1.00
15638;DHT22;26604;53.596;10.042;2023-08-24T11:15:40;24.80;1.00
15638;DHT22;26604;53.596;10.042;2023-08-24T11:18:25;24.90;1.00
15638;DHT22;26604;53.596;10.042;2023-08-24T11:20:54;24.90;1.00
15638;DHT22;26604;53.596;10.042;2023-08-24T11:23:24;25.00;1.00
15638;DHT22;26604;53.596;10.042;2023-08-24T11:25:52;25.10;1.00
15638;DHT22;26604;53.596;10.042;2023-08-24T11:28:23;25.20;1.00
15638;DHT22;26604;53.596;10.042;2023-08-24T11:30:50;25.20;1.00
15638;DHT22;26604;53.596;10.042;2023-08-24T11:33:27;25.20;1.00
15638;DHT22;26604;53.596;10.042;2023-08-24T11:35:55;25.20;1.00
15638;DHT22;26604;53.596;10.042;2023-08-24T11:38:23;25.20;1.00
15638;DHT22;26604;53.596;10.042;2023-08-24T11:40:50;25.20;1.00
15638;DHT22;26604;53.596;10.042;2023-08-24T11:43:24;25.30;1.00
15638;DHT22;26604;53.596;10.042;2023-08-24T11:45:50;25.40;1.00
15638;DHT22;26604;53.596;10.042;2023-08-24T11:48:17;25.40;1.00
15638;DHT22;26604;53.596;10.042;2023-08-24T11:50:44;25.60;1.00
15638;DHT22;26604;53.596;10.042;2023-08-24T11:53:13;25.60;1.00
15638;DHT22;26604;53.596;10.042;2023-08-24T11:55:41;25.70;1.00
15638;DHT22;26604;53.596;10.042;2023-08-24T11:58:14;25.80;1.00
15638;DHT22;26604;53.596;10.042;2023-08-24T12:00:42;25.90;1.00
15638;DHT22;26604;53.596;10.042;2023-08-24T12:03:09;26.10;1.00
15638;DHT22;26604;53.596;10.042;2023-08-24T12:05:36;26.30;1.00
15638;DHT22;26604;53.596;10.042;2023-08-24T12:08:03;26.50;1.00
15638;DHT22;26604;53.596;10.042;2023-08-24T12:10:30;26.80;1.00
15638;DHT22;26604;53.596;10.042;2023-08-24T12:13:06;26.90;1.00
15638;DHT22;26604;53.596;10.042;2023-08-24T12:15:34;27.20;1.00
15638;DHT22;26604;53.596;10.042;2023-08-24T12:18:07;27.40;1.00
15638;DHT22;26604;53.596;10.042;2023-08-24T12:20:34;27.60;1.00
15638;DHT22;26604;53.596;10.042;2023-08-24T12:23:02;27.70;1.00
15638;DHT22;26604;53.596;10.042;2023-08-24T12:25:29;27.80;1.00
15638;DHT22;26604;53.596;10.042;2023-08-24T12:28:10;27.90;1.00
15638;DHT22;26604;53.596;10.042;2023-08-24T12:30:44;28.10;1.00
15638;DHT22;26604;53.596;10.042;2023-08-24T12:33:21;28.20;1.00
15638;DHT22;26604;53.596;10.042;2023-08-24T12:35:48;28.20;1.00
15638;DHT22;26604;53.596;10.042;2023-08-24T12:38:15;28.40;1.00
15638;DHT22;26604;53.596;10.042;2023-08-24T12:40:42;28.60;1.00
15638;DHT22;26604;53.596;10.042;2023-08-24T12:43:10;28.60;1.00
15638;DHT22;26604;53.596;10.042;2023-08-24T12:45:39;28.60;1.00
15638;DHT22;26604;53.596;10.042;2023-08-24T12:48:06;28.60;1.00
15638;DHT22;26604;53.596;10.042;2023-08-24T12:50:33;28.50;1.00
15638;DHT22;26604;53.596;10.042;2023-08-24T12:53:00;28.40;1.00
15638;DHT22;26604;53.596;10.042;2023-08-24T12:55:28;28.40;1.00
15638;DHT22;26604;53.596;10.042;2023-08-24T12:57:55;28.40;1.00
15638;DHT22;26604;53.596;10.042;2023-08-24T13:00:24;28.40;1.00
15638;DHT22;26604;53.596;10.042;2023-08-24T13:02:52;28.30;1.00
15638;DHT22;26604;53.596;10.042;2023-08-24T13:05:19;28.40;1.00
15638;DHT22;26604;53.596;10.042;2023-08-24T13:07:46;28.60;1.00
15638;DHT22;26604;53.596;10.042;2023-08-24T13:10:12;28.80;1.00
15638;DHT22;26604;53.596;10.042;2023-08-24T13:12:39;28.90;1.00
15638;DHT22;26604;53.596;10.042;2023-08-24T13:15:07;29.00;1.00
15638;DHT22;26604;53.596;10.042;2023-08-24T13:17:35;29.00;1.00
15638;DHT22;26604;53.596;10.042;2023-08-24T13:20:03;28.80;1.00
15638;DHT22;26604;53.596;10.042;2023-08-24T13:22:31;28.50;1.00
15638;DHT22;26604;53.596;10.042;2023-08-24T13:24:58;28.20;1.00
15638;DHT22;26604;53.596;10.042;2023-08-24T13:27:25;27.90;1.00
15638;DHT22;26604;53.596;10.042;2023-08-24T13:29:52;27.80;1.00
15638;DHT22;26604;53.596;10.042;2023-08-24T13:32:22;27.60;1.00
15638;DHT22;26604;53.596;10.042;2023-08-24T13:34:50;27.50;1.00
15638;DHT22;26604;53.596;10.042;2023-08-24T13:37:17;27.40;1.00
15638;DHT22;26604;53.596;10.042;2023-08-24T13:39:44;27.30;1.00
15638;DHT22;26604;53.596;10.042;2023-08-24T13:42:12;27.10;1.00
15638;DHT22;26604;53.596;10.042;2023-08-24T13:44:39;27.00;1.00
15638;DHT22;26604;53.596;10.042;2023-08-24T13:47:06;26.90;1.00
15638;DHT22;26604;53.596;10.042;2023-08-24T13:49:33;26.70;1.00
15638;DHT22;26604;53.596;10.042;2023-08-24T13:52:01;26.70;1.00
15638;DHT22;26604;53.596;10.042;2023-08-24T13:54:28;26.60;1.00
15638;DHT22;26604;53.596;10.042;2023-08-24T13:56:55;26.60;1.00
15638;DHT22;26604;53.596;10.042;2023-08-24T13:59:24;26.60;1.00
15638;DHT22;26604;53.596;10.042;2023-08-24T14:01:51;26.60;1.00
15638;DHT22;26604;53.596;10.042;2023-08-24T14:04:18;26.60;1.00
15638;DHT22;26604;53.596;10.042;2023-08-24T14:06:44;26.50;1.00
15638;DHT22;26604;53.596;10.042;2023-08-24T14:09:12;26.50;1.00
15638;DHT22;26604;53.596;10.042;2023-08-24T14:11:39;26.30;1.00
15638;DHT22;26604;53.596;10.042;2023-08-24T14:14:05;26.20;1.00
15638;DHT22;26604;53.596;10.042;2023-08-24T14:16:32;26.10;1.00
15638;DHT22;26604;53.596;10.042;2023-08-24T14:18:59;26.10;1.00
15638;DHT22;26604;53.596;10.042;2023-08-24T14:21:26;26.10;1.00
15638;DHT22;26604;53.596;10.042;2023-08-24T14:23:53;26.20;1.00
15638;DHT22;26604;53.596;10.042;2023-08-24T14:26:21;26.50;1.00
15638;DHT22;26604;53.596;10.042;2023-08-24T14:28:49;26.70;1.00
15638;DHT22;26604;53.596;10.042;2023-08-24T14:31:16;26.90;1.00
15638;DHT22;26604;53.596;10.042;2023-08-24T14:33:43;27.00;1.00
15638;DHT22;26604;53.596;10.042;2023-08-24T14:36:10;27.20;1.00
15638;DHT22;26604;53.596;10.042;2023-08-24T14:38:39;27.40;1.00
15638;DHT22;26604;53.596;10.042;2023-08-24T14:41:06;27.50;1.00
15638;DHT22;26604;53.596;10.042;2023-08-24T14:43:35;27.60;1.00
15638;DHT22;26604;53.596;10.042;2023-08-24T14:46:02;27.70;1.00
15638;DHT22;26604;53.596;10.042;2023-08-24T14:48:29;27.70;1.00
15638;DHT22;26604;53.596;10.042;2023-08-24T14:50:56;27.80;1.00
15638;DHT22;26604;53.596;10.042;2023-08-24T14:53:24;27.80;1.00
15638;DHT22;26604;53.596;10.042;2023-08-24T14:55:52;27.90;1.00
15638;DHT22;26604;53.596;10.042;2023-08-24T14:58:20;28.00;1.00
15638;DHT22;26604;53.596;10.042;2023-08-24T15:00:49;28.00;1.00
15638;DHT22;26604;53.596;10.042;2023-08-24T15:03:16;28.00;1.00
15638;DHT22;26604;53.596;10.042;2023-08-24T15:05:44;28.10;1.00
15638;DHT22;26604;53.596;10.042;2023-08-24T15:08:11;28.00;1.00
15638;DHT22;26604;53.596;10.042;2023-08-24T15:10:38;28.00;1.00
15638;DHT22;26604;53.596;10.042;2023-08-24T15:13:05;28.00;1.00
15638;DHT22;26604;53.596;10.042;2023-08-24T15:15:35;27.90;1.00
15638;DHT22;26604;53.596;10.042;2023-08-24T15:18:03;28.00;1.00
15638;DHT22;26604;53.596;10.042;2023-08-24T15:20:30;28.00;1.00
15638;DHT22;26604;53.596;10.042;2023-08-24T15:22:58;27.90;1.00
15638;DHT22;26604;53.596;10.042;2023-08-24T15:25:25;27.90;1.00
15638;DHT22;26604;53.596;10.042;2023-08-24T15:27:52;27.90;1.00